sensor_id;sensor_type;location;lat;lon;timestamp;pressure;altitude;pressure_sealevel;temperature;humidity
81025;BME280;70500;50.292;6.666;2023-07-30T00:00:05;95963.44;;;22.20;58.10
81025;BME280;70500;50.292;6.666;2023-07-30T00:02:38;95963.72;;;22.17;58.07
81025;BME280;70500;50.292;6.666;2023-07-30T00:05:07;95964.75;;;22.14;58.07
81025;BME280;70500;50.292;6.666;2023-07-30T00:07:37;95965.50;;;22.14;58.41
81025;BME280;70500;50.292;6.666;2023-07-30T00:10:08;95964.75;;;22.14;58.50
81025;BME280;70500;50.292;6.666;2023-07-30T00:12:41;95968.00;;;22.12;58.24
81025;BME280;70500;50.292;6.666;2023-07-30T00:15:10;95959.56;;;22.10;58.28
81025;BME280;70500;50.292;6.666;2023-07-30T00:17:42;95972.50;;;22.10;58.30
81025;BME280;70500;50.292;6.666;2023-07-30T00:20:11;95964.78;;;22.08;58.22
81025;BME280;70500;50.292;6.666;2023-07-30T00:22:40;95963.31;;;22.07;58.17
81025;BME280;70500;50.292;6.666;2023-07-30T00:25:09;95956.34;;;22.06;58.32
81025;BME280;70500;50.292;6.666;2023-07-30T00:27:39;95953.34;;;22.04;58.32
81025;BME280;70500;50.292;6.666;2023-07-30T00:30:12;95953.13;;;22.02;58.43
81025;BME280;70500;50.292;6.666;2023-07-30T00:32:41;95960.09;;;22.03;58.23
81025;BME280;70500;50.292;6.666;2023-07-30T00:35:12;95953.63;;;22.01;58.43
81025;BME280;70500;50.292;6.666;2023-07-30T00:37:42;95955.63;;;22.00;58.27
81025;BME280;70500;50.292;6.666;2023-07-30T00:40:11;95961.09;;;22.00;58.20
81025;BME280;70500;50.292;6.666;2023-07-30T00:42:41;95958.88;;;21.98;58.27
81025;BME280;70500;50.292;6.666;2023-07-30T00:45:11;95958.63;;;21.96;58.45
81025;BME280;70500;50.292;6.666;2023-07-30T00:47:41;95956.63;;;21.97;58.08
81025;BME280;70500;50.292;6.666;2023-07-30T00:50:13;95959.91;;;21.95;58.50
81025;BME280;70500;50.292;6.666;2023-07-30T00:52:44;95958.41;;;21.94;58.44
81025;BME280;70500;50.292;6.666;2023-07-30T00:55:14;95959.91;;;21.95;58.27
81025;BME280;70500;50.292;6.666;2023-07-30T00:57:45;95965.16;;;21.93;58.21
81025;BME280;70500;50.292;6.666;2023-07-30T01:00:18;95967.16;;;21.93;58.37
81025;BME280;70500;50.292;6.666;2023-07-30T01:02:51;95969.88;;;21.93;58.51
81025;BME280;70500;50.292;6.666;2023-07-30T01:05:20;95967.16;;;21.93;58.27
81025;BME280;70500;50.292;6.666;2023-07-30T01:07:50;95968.91;;;21.90;58.46
81025;BME280;70500;50.292;6.666;2023-07-30T01:10:21;95966.91;;;21.91;58.48
81025;BME280;70500;50.292;6.666;2023-07-30T01:12:51;95961.94;;;21.89;58.48
81025;BME280;70500;50.292;6.666;2023-07-30T01:15:23;95961.19;;;21.89;58.42
81025;BME280;70500;50.292;6.666;2023-07-30T01:17:53;95971.16;;;21.86;58.29
81025;BME280;70500;50.292;6.666;2023-07-30T01:20:23;95973.91;;;21.86;58.47
81025;BME280;70500;50.292;6.666;2023-07-30T01:22:53;95965.44;;;21.84;58.46
81025;BME280;70500;50.292;6.666;2023-07-30T01:25:24;95979.13;;;21.84;58.33
81025;BME280;70500;50.292;6.666;2023-07-30T01:28:00;95967.44;;;21.84;58.41
81025;BME280;70500;50.292;6.666;2023-07-30T01:30:38;95970.91;;;21.84;58.25
81025;BME280;70500;50.292;6.666;2023-07-30T01:33:10;95966.44;;;21.81;58.45
81025;BME280;70500;50.292;6.666;2023-07-30T01:35:42;95964.44;;;21.82;58.48
81025;BME280;70500;50.292;6.666;2023-07-30T01:38:16;95971.94;;;21.81;58.49
81025;BME280;70500;50.292;6.666;2023-07-30T01:40:47;95981.41;;;21.80;58.35
81025;BME280;70500;50.292;6.666;2023-07-30T01:43:16;95979.13;;;21.79;58.46
81025;BME280;70500;50.292;6.666;2023-07-30T01:45:45;95986.88;;;21.80;58.55
81025;BME280;70500;50.292;6.666;2023-07-30T01:48:15;95982.63;;;21.79;58.75
81025;BME280;70500;50.292;6.666;2023-07-30T01:50:44;95990.59;;;21.77;58.73
81025;BME280;70500;50.292;6.666;2023-07-30T01:53:16;95984.59;;;21.79;58.60
81025;BME280;70500;50.292;6.666;2023-07-30T01:55:45;95982.38;;;21.77;58.80
81025;BME280;70500;50.292;6.666;2023-07-30T01:58:16;95988.88;;;21.80;58.93
81025;BME280;70500;50.292;6.666;2023-07-30T02:00:46;95978.53;;;22.03;58.96
81025;BME280;70500;50.292;6.666;2023-07-30T02:03:15;95975.53;;;22.06;59.57
81025;BME280;70500;50.292;6.666;2023-07-30T02:05:44;95982.25;;;22.05;59.85
81025;BME280;70500;50.292;6.666;2023-07-30T02:08:19;95972.03;;;22.06;59.61
81025;BME280;70500;50.292;6.666;2023-07-30T02:10:55;95982.28;;;22.00;59.49
81025;BME280;70500;50.292;6.666;2023-07-30T02:13:25;95974.13;;;21.88;59.90
81025;BME280;70500;50.292;6.666;2023-07-30T02:15:54;95974.88;;;21.89;59.83
81025;BME280;70500;50.292;6.666;2023-07-30T02:18:23;95972.66;;;21.87;59.85
81025;BME280;70500;50.292;6.666;2023-07-30T02:20:52;95970.16;;;21.89;59.64
81025;BME280;70500;50.292;6.666;2023-07-30T02:23:23;95972.66;;;21.87;59.99
81025;BME280;70500;50.292;6.666;2023-07-30T02:25:52;95969.91;;;21.87;60.01
81025;BME280;70500;50.292;6.666;2023-07-30T02:28:21;95958.94;;;21.87;59.92
81025;BME280;70500;50.292;6.666;2023-07-30T02:30:51;95958.94;;;21.87;60.03
81025;BME280;70500;50.292;6.666;2023-07-30T02:33:20;95961.97;;;21.84;59.99
81025;BME280;70500;50.292;6.666;2023-07-30T02:35:49;95965.44;;;21.84;59.80
81025;BME280;70500;50.292;6.666;2023-07-30T02:38:18;95971.16;;;21.86;59.79
81025;BME280;70500;50.292;6.666;2023-07-30T02:40:49;95976.13;;;21.88;60.04
81025;BME280;70500;50.292;6.666;2023-07-30T02:43:18;95979.88;;;21.85;60.22
81025;BME280;70500;50.292;6.666;2023-07-30T02:45:47;95980.63;;;21.85;59.95
81025;BME280;70500;50.292;6.666;2023-07-30T02:48:16;95979.13;;;21.84;59.92
81025;BME280;70500;50.292;6.666;2023-07-30T02:50:45;95982.63;;;21.85;59.84
81025;BME280;70500;50.292;6.666;2023-07-30T02:53:14;95989.59;;;21.86;59.86
81025;BME280;70500;50.292;6.666;2023-07-30T02:55:43;95984.84;;;21.86;59.89
81025;BME280;70500;50.292;6.666;2023-07-30T02:58:14;95986.31;;;21.93;59.61
81025;BME280;70500;50.292;6.666;2023-07-30T03:00:43;95988.09;;;21.85;59.93
81025;BME280;70500;50.292;6.666;2023-07-30T03:03:14;95985.38;;;21.85;59.77
81025;BME280;70500;50.292;6.666;2023-07-30T03:05:43;95982.63;;;21.85;59.68
81025;BME280;70500;50.292;6.666;2023-07-30T03:08:12;95986.09;;;21.85;59.66
81025;BME280;70500;50.292;6.666;2023-07-30T03:10:41;95986.63;;;21.84;59.76
81025;BME280;70500;50.292;6.666;2023-07-30T03:13:10;95992.56;;;21.88;59.50
81025;BME280;70500;50.292;6.666;2023-07-30T03:15:40;95984.63;;;21.84;59.62
81025;BME280;70500;50.292;6.666;2023-07-30T03:18:10;95986.31;;;21.93;59.48
81025;BME280;70500;50.292;6.666;2023-07-30T03:20:39;95990.00;;;22.01;59.22
81025;BME280;70500;50.292;6.666;2023-07-30T03:23:08;95993.47;;;22.02;59.33
81025;BME280;70500;50.292;6.666;2023-07-30T03:25:37;95993.00;;;21.97;59.54
81025;BME280;70500;50.292;6.666;2023-07-30T03:28:06;95995.25;;;21.99;59.60
81025;BME280;70500;50.292;6.666;2023-07-30T03:30:35;95985.75;;;22.00;59.53
81025;BME280;70500;50.292;6.666;2023-07-30T03:33:07;95998.47;;;22.03;59.66
81025;BME280;70500;50.292;6.666;2023-07-30T03:35:36;95994.69;;;22.12;59.26
81025;BME280;70500;50.292;6.666;2023-07-30T03:38:06;96002.34;;;22.19;59.00
81025;BME280;70500;50.292;6.666;2023-07-30T03:40:35;96001.34;;;22.16;59.22
81025;BME280;70500;50.292;6.666;2023-07-30T03:43:05;96003.59;;;22.18;59.23
81025;BME280;70500;50.292;6.666;2023-07-30T03:45:34;96005.56;;;22.23;59.10
81025;BME280;70500;50.292;6.666;2023-07-30T03:48:03;96000.81;;;22.23;59.17
81025;BME280;70500;50.292;6.666;2023-07-30T03:50:34;95992.84;;;22.25;59.02
81025;BME280;70500;50.292;6.666;2023-07-30T03:53:03;96000.59;;;22.21;59.34
81025;BME280;70500;50.292;6.666;2023-07-30T03:55:32;95999.81;;;22.26;59.20
81025;BME280;70500;50.292;6.666;2023-07-30T03:58:01;95992.56;;;22.29;59.04
81025;BME280;70500;50.292;6.666;2023-07-30T04:00:30;95996.09;;;22.24;59.05
81025;BME280;70500;50.292;6.666;2023-07-30T04:03:00;96014.53;;;22.23;59.06
81025;BME280;70500;50.292;6.666;2023-07-30T04:05:30;96004.53;;;22.26;59.14
81025;BME280;70500;50.292;6.666;2023-07-30T04:08:02;96013.28;;;22.24;59.10
81025;BME280;70500;50.292;6.666;2023-07-30T04:10:31;96014.22;;;22.33;59.24
81025;BME280;70500;50.292;6.666;2023-07-30T04:13:00;96013.44;;;22.38;58.83
81025;BME280;70500;50.292;6.666;2023-07-30T04:15:29;96016.91;;;22.38;58.73
81025;BME280;70500;50.292;6.666;2023-07-30T04:17:58;96018.91;;;22.38;58.82
81025;BME280;70500;50.292;6.666;2023-07-30T04:20:27;96017.91;;;22.41;58.72
81025;BME280;70500;50.292;6.666;2023-07-30T04:22:56;95994.22;;;22.38;58.97
81025;BME280;70500;50.292;6.666;2023-07-30T04:25:28;96000.47;;;22.38;58.81
81025;BME280;70500;50.292;6.666;2023-07-30T04:27:57;96001.72;;;22.37;58.81
81025;BME280;70500;50.292;6.666;2023-07-30T04:30:26;96002.22;;;22.36;58.92
81025;BME280;70500;50.292;6.666;2023-07-30T04:32:55;96004.41;;;22.43;59.02
81025;BME280;70500;50.292;6.666;2023-07-30T04:35:25;95999.41;;;22.47;58.87
81025;BME280;70500;50.292;6.666;2023-07-30T04:37:54;95995.22;;;22.40;58.99
81025;BME280;70500;50.292;6.666;2023-07-30T04:40:23;95996.19;;;22.43;58.95
81025;BME280;70500;50.292;6.666;2023-07-30T04:42:53;96008.19;;;22.40;58.63
81025;BME280;70500;50.292;6.666;2023-07-30T04:45:23;96005.28;;;22.26;58.80
81025;BME280;70500;50.292;6.666;2023-07-30T04:47:54;96006.00;;;22.33;58.50
81025;BME280;70500;50.292;6.666;2023-07-30T04:50:23;96010.97;;;22.34;59.04
81025;BME280;70500;50.292;6.666;2023-07-30T04:52:52;96015.47;;;22.31;58.93
81025;BME280;70500;50.292;6.666;2023-07-30T04:55:22;96019.25;;;22.23;59.16
81025;BME280;70500;50.292;6.666;2023-07-30T04:57:51;96013.31;;;22.19;59.46
81025;BME280;70500;50.292;6.666;2023-07-30T05:00:21;96011.81;;;22.18;58.93
81025;BME280;70500;50.292;6.666;2023-07-30T05:02:51;96014.31;;;22.16;58.75
81025;BME280;70500;50.292;6.666;2023-07-30T05:05:20;96008.31;;;22.17;58.26
81025;BME280;70500;50.292;6.666;2023-07-30T05:07:49;96014.53;;;22.23;58.10
81025;BME280;70500;50.292;6.666;2023-07-30T05:10:18;96012.31;;;22.16;57.81
81025;BME280;70500;50.292;6.666;2023-07-30T05:12:47;96011.38;;;22.08;57.36
81025;BME280;70500;50.292;6.666;2023-07-30T05:15:16;96010.91;;;22.04;57.48
81025;BME280;70500;50.292;6.666;2023-07-30T05:17:47;96013.66;;;22.04;57.45
81025;BME280;70500;50.292;6.666;2023-07-30T05:20:16;96008.69;;;22.03;57.35
81025;BME280;70500;50.292;6.666;2023-07-30T05:22:45;96005.69;;;22.01;57.50
81025;BME280;70500;50.292;6.666;2023-07-30T05:25:14;96018.41;;;21.98;57.56
81025;BME280;70500;50.292;6.666;2023-07-30T05:27:43;96009.72;;;21.94;57.47
81025;BME280;70500;50.292;6.666;2023-07-30T05:30:12;96016.97;;;21.91;57.39
81025;BME280;70500;50.292;6.666;2023-07-30T05:32:42;96018.47;;;21.87;57.36
81025;BME280;70500;50.292;6.666;2023-07-30T05:35:12;96020.22;;;21.84;57.36
81025;BME280;70500;50.292;6.666;2023-07-30T05:37:41;96023.47;;;21.83;57.62
81025;BME280;70500;50.292;6.666;2023-07-30T05:40:10;96020.47;;;21.86;57.51
81025;BME280;70500;50.292;6.666;2023-07-30T05:42:39;96032.69;;;21.85;57.21
81025;BME280;70500;50.292;6.666;2023-07-30T05:45:10;96026.97;;;21.83;57.21
81025;BME280;70500;50.292;6.666;2023-07-30T05:47:39;96023.25;;;21.81;57.13
81025;BME280;70500;50.292;6.666;2023-07-30T05:50:09;96029.19;;;21.79;57.33
81025;BME280;70500;50.292;6.666;2023-07-30T05:52:40;96032.44;;;21.83;57.06
81025;BME280;70500;50.292;6.666;2023-07-30T05:55:09;96042.63;;;21.94;56.84
81025;BME280;70500;50.292;6.666;2023-07-30T05:57:38;96040.84;;;21.96;56.58
81025;BME280;70500;50.292;6.666;2023-07-30T06:00:08;96038.34;;;21.98;56.19
81025;BME280;70500;50.292;6.666;2023-07-30T06:02:40;96044.56;;;21.99;56.42
81025;BME280;70500;50.292;6.666;2023-07-30T06:05:09;96048.56;;;21.98;56.35
81025;BME280;70500;50.292;6.666;2023-07-30T06:07:39;96053.53;;;22.00;56.59
81025;BME280;70500;50.292;6.666;2023-07-30T06:10:09;96050.53;;;22.03;56.28
81025;BME280;70500;50.292;6.666;2023-07-30T06:12:38;96049.53;;;22.06;56.28
81025;BME280;70500;50.292;6.666;2023-07-30T06:15:09;96057.25;;;22.02;55.82
81025;BME280;70500;50.292;6.666;2023-07-30T06:17:38;96057.25;;;22.02;55.89
81025;BME280;70500;50.292;6.666;2023-07-30T06:20:08;96054.53;;;22.02;55.88
81025;BME280;70500;50.292;6.666;2023-07-30T06:22:39;96060.75;;;22.03;56.07
81025;BME280;70500;50.292;6.666;2023-07-30T06:25:08;96061.50;;;22.03;55.84
81025;BME280;70500;50.292;6.666;2023-07-30T06:27:37;96067.47;;;22.07;56.01
81025;BME280;70500;50.292;6.666;2023-07-30T06:30:07;96064.75;;;22.02;56.01
81025;BME280;70500;50.292;6.666;2023-07-30T06:32:36;96065.22;;;22.06;55.99
81025;BME280;70500;50.292;6.666;2023-07-30T06:35:06;96062.97;;;22.04;55.80
81025;BME280;70500;50.292;6.666;2023-07-30T06:37:36;96064.75;;;22.02;55.70
81025;BME280;70500;50.292;6.666;2023-07-30T06:40:07;96067.72;;;22.04;55.87
81025;BME280;70500;50.292;6.666;2023-07-30T06:42:36;96065.47;;;22.02;55.56
81025;BME280;70500;50.292;6.666;2023-07-30T06:45:07;96067.47;;;22.02;56.02
81025;BME280;70500;50.292;6.666;2023-07-30T06:47:36;96074.00;;;21.93;55.59
81025;BME280;70500;50.292;6.666;2023-07-30T06:50:06;96073.03;;;21.85;55.63
81025;BME280;70500;50.292;6.666;2023-07-30T06:52:36;96076.28;;;21.83;55.47
81025;BME280;70500;50.292;6.666;2023-07-30T06:55:07;96085.00;;;21.82;55.63
81025;BME280;70500;50.292;6.666;2023-07-30T06:57:37;96077.00;;;21.78;55.69
81025;BME280;70500;50.292;6.666;2023-07-30T07:00:07;96082.03;;;21.74;55.34
81025;BME280;70500;50.292;6.666;2023-07-30T07:02:36;96082.53;;;21.73;55.42
81025;BME280;70500;50.292;6.666;2023-07-30T07:05:06;96090.50;;;21.71;55.31
81025;BME280;70500;50.292;6.666;2023-07-30T07:07:35;96090.75;;;21.67;55.40
81025;BME280;70500;50.292;6.666;2023-07-30T07:10:07;96097.97;;;21.64;55.48
81025;BME280;70500;50.292;6.666;2023-07-30T07:12:38;96094.25;;;21.62;55.50
81025;BME280;70500;50.292;6.666;2023-07-30T07:15:08;96106.22;;;21.59;55.32
81025;BME280;70500;50.292;6.666;2023-07-30T07:17:37;96114.94;;;21.57;55.42
81025;BME280;70500;50.292;6.666;2023-07-30T07:20:07;96117.66;;;21.57;55.47
81025;BME280;70500;50.292;6.666;2023-07-30T07:22:38;96120.94;;;21.56;56.00
81025;BME280;70500;50.292;6.666;2023-07-30T07:25:09;96117.44;;;21.55;56.53
81025;BME280;70500;50.292;6.666;2023-07-30T07:27:38;96126.66;;;21.52;56.56
81025;BME280;70500;50.292;6.666;2023-07-30T07:30:08;96123.91;;;21.52;56.49
81025;BME280;70500;50.292;6.666;2023-07-30T07:32:37;96122.91;;;21.55;56.85
81025;BME280;70500;50.292;6.666;2023-07-30T07:35:07;96116.91;;;21.62;56.72
81025;BME280;70500;50.292;6.666;2023-07-30T07:37:36;96119.16;;;21.64;56.28
81025;BME280;70500;50.292;6.666;2023-07-30T07:40:08;96126.13;;;21.65;56.39
81025;BME280;70500;50.292;6.666;2023-07-30T07:42:38;96116.41;;;21.70;55.96
81025;BME280;70500;50.292;6.666;2023-07-30T07:45:09;96116.41;;;21.70;55.90
81025;BME280;70500;50.292;6.666;2023-07-30T07:47:38;96119.91;;;21.64;55.89
81025;BME280;70500;50.292;6.666;2023-07-30T07:50:07;96121.88;;;21.70;56.04
81025;BME280;70500;50.292;6.666;2023-07-30T07:52:37;96118.66;;;21.71;55.85
81025;BME280;70500;50.292;6.666;2023-07-30T07:55:06;96117.88;;;21.76;55.78
81025;BME280;70500;50.292;6.666;2023-07-30T07:57:37;96112.16;;;21.80;55.63
81025;BME280;70500;50.292;6.666;2023-07-30T08:00:07;96116.41;;;21.70;55.67
81025;BME280;70500;50.292;6.666;2023-07-30T08:02:41;96122.88;;;21.67;55.76
81025;BME280;70500;50.292;6.666;2023-07-30T08:05:10;96116.41;;;21.70;55.60
81025;BME280;70500;50.292;6.666;2023-07-30T08:07:39;96122.63;;;21.70;55.57
81025;BME280;70500;50.292;6.666;2023-07-30T08:10:09;96118.38;;;21.75;55.46
81025;BME280;70500;50.292;6.666;2023-07-30T08:12:40;96114.66;;;21.72;55.33
81025;BME280;70500;50.292;6.666;2023-07-30T08:15:09;96116.16;;;21.73;55.52
81025;BME280;70500;50.292;6.666;2023-07-30T08:17:38;96116.91;;;21.74;55.29
81025;BME280;70500;50.292;6.666;2023-07-30T08:20:07;96118.66;;;21.71;55.43
81025;BME280;70500;50.292;6.666;2023-07-30T08:22:37;96123.59;;;21.78;55.25
81025;BME280;70500;50.292;6.666;2023-07-30T08:25:07;96122.63;;;21.76;55.44
81025;BME280;70500;50.292;6.666;2023-07-30T08:27:36;96140.53;;;21.77;55.46
81025;BME280;70500;50.292;6.666;2023-07-30T08:30:07;96137.56;;;21.80;55.12
81025;BME280;70500;50.292;6.666;2023-07-30T08:32:37;96148.75;;;21.82;54.98
81025;BME280;70500;50.292;6.666;2023-07-30T08:35:08;96158.44;;;21.78;54.94
81025;BME280;70500;50.292;6.666;2023-07-30T08:37:37;96158.97;;;21.76;54.71
81025;BME280;70500;50.292;6.666;2023-07-30T08:40:08;96159.69;;;21.77;54.67
81025;BME280;70500;50.292;6.666;2023-07-30T08:42:37;96154.97;;;21.77;54.68
81025;BME280;70500;50.292;6.666;2023-07-30T08:45:08;96160.69;;;21.79;54.33
81025;BME280;70500;50.292;6.666;2023-07-30T08:47:39;96157.94;;;21.79;54.23
81025;BME280;70500;50.292;6.666;2023-07-30T08:50:09;96167.19;;;21.71;54.27
81025;BME280;70500;50.292;6.666;2023-07-30T08:52:38;96166.75;;;21.55;53.27
81025;BME280;70500;50.292;6.666;2023-07-30T08:55:08;96165.25;;;21.49;53.02
81025;BME280;70500;50.292;6.666;2023-07-30T08:57:41;96159.03;;;21.37;52.08
81025;BME280;70500;50.292;6.666;2023-07-30T09:00:17;96160.53;;;21.27;51.91
81025;BME280;70500;50.292;6.666;2023-07-30T09:02:50;96168.50;;;21.31;51.69
81025;BME280;70500;50.292;6.666;2023-07-30T09:05:21;96166.50;;;21.25;51.73
81025;BME280;70500;50.292;6.666;2023-07-30T09:07:50;96170.97;;;21.23;51.81
81025;BME280;70500;50.292;6.666;2023-07-30T09:10:19;96184.16;;;21.24;51.69
81025;BME280;70500;50.292;6.666;2023-07-30T09:12:52;96176.97;;;21.16;52.03
81025;BME280;70500;50.292;6.666;2023-07-30T09:15:31;96184.44;;;21.15;51.93
81025;BME280;70500;50.292;6.666;2023-07-30T09:18:01;96174.47;;;21.18;51.85
81025;BME280;70500;50.292;6.666;2023-07-30T09:20:36;96186.69;;;21.17;51.48
81025;BME280;70500;50.292;6.666;2023-07-30T09:23:06;96185.41;;;21.12;51.77
81025;BME280;70500;50.292;6.666;2023-07-30T09:25:35;96180.19;;;21.14;51.51
81025;BME280;70500;50.292;6.666;2023-07-30T09:28:06;96170.75;;;21.10;51.54
81025;BME280;70500;50.292;6.666;2023-07-30T09:30:36;96173.72;;;21.06;51.67
81025;BME280;70500;50.292;6.666;2023-07-30T09:33:05;96182.94;;;21.09;51.73
81025;BME280;70500;50.292;6.666;2023-07-30T09:35:35;96183.41;;;21.07;52.19
81025;BME280;70500;50.292;6.666;2023-07-30T09:38:04;96192.13;;;21.06;52.21
81025;BME280;70500;50.292;6.666;2023-07-30T09:40:35;96191.38;;;21.05;51.98
81025;BME280;70500;50.292;6.666;2023-07-30T09:43:05;96191.38;;;21.05;51.82
81025;BME280;70500;50.292;6.666;2023-07-30T09:45:37;96197.59;;;21.06;51.59
81025;BME280;70500;50.292;6.666;2023-07-30T09:48:06;96200.56;;;21.02;51.71
81025;BME280;70500;50.292;6.666;2023-07-30T09:50:36;96201.81;;;20.95;51.43
81025;BME280;70500;50.292;6.666;2023-07-30T09:53:09;96200.84;;;20.99;51.42
81025;BME280;70500;50.292;6.666;2023-07-30T09:55:38;96204.56;;;21.07;51.32
81025;BME280;70500;50.292;6.666;2023-07-30T09:58:07;96201.84;;;21.12;51.68
81025;BME280;70500;50.292;6.666;2023-07-30T10:00:40;96203.59;;;21.26;51.01
81025;BME280;70500;50.292;6.666;2023-07-30T10:03:12;96210.06;;;21.35;51.39
81025;BME280;70500;50.292;6.666;2023-07-30T10:05:44;96196.88;;;21.33;51.44
81025;BME280;70500;50.292;6.666;2023-07-30T10:08:21;96200.34;;;21.39;51.51
81025;BME280;70500;50.292;6.666;2023-07-30T10:10:53;96202.84;;;21.37;51.57
81025;BME280;70500;50.292;6.666;2023-07-30T10:13:24;96201.34;;;21.42;51.90
81025;BME280;70500;50.292;6.666;2023-07-30T10:15:55;96204.06;;;21.42;51.94
81025;BME280;70500;50.292;6.666;2023-07-30T10:18:33;96205.06;;;21.50;51.73
81025;BME280;70500;50.292;6.666;2023-07-30T10:21:02;96215.28;;;21.49;52.02
81025;BME280;70500;50.292;6.666;2023-07-30T10:23:33;96208.56;;;21.45;52.28
81025;BME280;70500;50.292;6.666;2023-07-30T10:26:09;96210.06;;;21.46;52.35
81025;BME280;70500;50.292;6.666;2023-07-30T10:28:38;96203.34;;;21.47;52.56
81025;BME280;70500;50.292;6.666;2023-07-30T10:31:12;96207.31;;;21.40;52.70
81025;BME280;70500;50.292;6.666;2023-07-30T10:33:47;96204.06;;;21.42;52.88
81025;BME280;70500;50.292;6.666;2023-07-30T10:36:18;96203.81;;;21.40;52.93
81025;BME280;70500;50.292;6.666;2023-07-30T10:38:47;96210.31;;;21.48;53.13
81025;BME280;70500;50.292;6.666;2023-07-30T10:41:20;96214.03;;;21.50;53.16
81025;BME280;70500;50.292;6.666;2023-07-30T10:43:50;96218.75;;;21.39;53.28
81025;BME280;70500;50.292;6.666;2023-07-30T10:46:22;96213.06;;;21.37;53.51
81025;BME280;70500;50.292;6.666;2023-07-30T10:48:52;96212.78;;;21.46;53.39
81025;BME280;70500;50.292;6.666;2023-07-30T10:51:21;96206.81;;;21.42;53.77
81025;BME280;70500;50.292;6.666;2023-07-30T10:53:51;96216.53;;;21.43;53.82
81025;BME280;70500;50.292;6.666;2023-07-30T10:56:22;96209.81;;;21.49;53.52
81025;BME280;70500;50.292;6.666;2023-07-30T10:58:53;96222.75;;;21.49;54.13
81025;BME280;70500;50.292;6.666;2023-07-30T11:01:25;96217.03;;;21.41;53.92
81025;BME280;70500;50.292;6.666;2023-07-30T11:03:55;96219.50;;;21.39;54.38
81025;BME280;70500;50.292;6.666;2023-07-30T11:06:26;96216.53;;;21.37;54.54
81025;BME280;70500;50.292;6.666;2023-07-30T11:08:56;96232.22;;;21.37;54.51
81025;BME280;70500;50.292;6.666;2023-07-30T11:11:26;96221.28;;;21.37;54.69
81025;BME280;70500;50.292;6.666;2023-07-30T11:13:55;96226.47;;;21.40;54.83
81025;BME280;70500;50.292;6.666;2023-07-30T11:16:26;96231.72;;;21.38;54.73
81025;BME280;70500;50.292;6.666;2023-07-30T11:18:56;96228.47;;;21.40;54.95
81025;BME280;70500;50.292;6.666;2023-07-30T11:21:25;96230.97;;;21.43;54.74
81025;BME280;70500;50.292;6.666;2023-07-30T11:23:54;96233.19;;;21.45;54.79
81025;BME280;70500;50.292;6.666;2023-07-30T11:26:23;96237.44;;;21.51;54.73
81025;BME280;70500;50.292;6.666;2023-07-30T11:28:52;96220.75;;;21.49;54.72
81025;BME280;70500;50.292;6.666;2023-07-30T11:31:21;96234.72;;;21.51;54.86
81025;BME280;70500;50.292;6.666;2023-07-30T11:33:56;96245.66;;;21.51;54.88
81025;BME280;70500;50.292;6.666;2023-07-30T11:36:26;96234.97;;;21.53;55.09
81025;BME280;70500;50.292;6.666;2023-07-30T11:38:55;96235.44;;;21.52;54.78
81025;BME280;70500;50.292;6.666;2023-07-30T11:41:25;96251.63;;;21.50;54.99
81025;BME280;70500;50.292;6.666;2023-07-30T11:43:55;96248.16;;;21.49;55.04
81025;BME280;70500;50.292;6.666;2023-07-30T11:46:24;96253.88;;;21.51;55.22
81025;BME280;70500;50.292;6.666;2023-07-30T11:49:12;96259.09;;;21.49;55.07
81025;BME280;70500;50.292;6.666;2023-07-30T11:51:41;96269.31;;;21.49;55.02
81025;BME280;70500;50.292;6.666;2023-07-30T11:54:19;96279.03;;;21.50;55.16
81025;BME280;70500;50.292;6.666;2023-07-30T11:56:54;96281.00;;;21.49;55.35
81025;BME280;70500;50.292;6.666;2023-07-30T11:59:23;96270.06;;;21.49;54.83
81025;BME280;70500;50.292;6.666;2023-07-30T12:01:53;96281.00;;;21.49;54.70
81025;BME280;70500;50.292;6.666;2023-07-30T12:04:23;96277.53;;;21.49;55.14
81025;BME280;70500;50.292;6.666;2023-07-30T12:06:53;96271.56;;;21.50;55.01
81025;BME280;70500;50.292;6.666;2023-07-30T12:09:23;96276.03;;;21.53;55.28
81025;BME280;70500;50.292;6.666;2023-07-30T12:11:55;96276.53;;;21.52;55.44
81025;BME280;70500;50.292;6.666;2023-07-30T12:14:25;96282.75;;;21.52;55.44
81025;BME280;70500;50.292;6.666;2023-07-30T12:16:59;96281.78;;;21.55;55.56
81025;BME280;70500;50.292;6.666;2023-07-30T12:19:29;96286.25;;;21.53;55.62
81025;BME280;70500;50.292;6.666;2023-07-30T12:21:59;96288.75;;;21.56;55.28
81025;BME280;70500;50.292;6.666;2023-07-30T12:24:28;96285.75;;;21.54;55.30
81025;BME280;70500;50.292;6.666;2023-07-30T12:26:57;96275.03;;;21.56;55.66
81025;BME280;70500;50.292;6.666;2023-07-30T12:29:26;96271.53;;;21.61;55.41
81025;BME280;70500;50.292;6.666;2023-07-30T12:31:55;96273.03;;;21.62;55.34
81025;BME280;70500;50.292;6.666;2023-07-30T12:34:25;96285.00;;;21.65;55.31
81025;BME280;70500;50.292;6.666;2023-07-30T12:36:56;96292.22;;;21.62;55.30
81025;BME280;70500;50.292;6.666;2023-07-30T12:39:28;96278.25;;;21.60;55.47
81025;BME280;70500;50.292;6.666;2023-07-30T12:41:57;96281.50;;;21.64;55.18
81025;BME280;70500;50.292;6.666;2023-07-30T12:44:26;96284.75;;;21.69;55.14
81025;BME280;70500;50.292;6.666;2023-07-30T12:46:55;96280.00;;;21.63;55.41
81025;BME280;70500;50.292;6.666;2023-07-30T12:49:24;96286.72;;;21.62;55.55
81025;BME280;70500;50.292;6.666;2023-07-30T12:51:53;96286.22;;;21.64;55.71
81025;BME280;70500;50.292;6.666;2023-07-30T12:54:24;96290.22;;;21.69;55.46
81025;BME280;70500;50.292;6.666;2023-07-30T12:56:54;96269.31;;;21.71;55.23
81025;BME280;70500;50.292;6.666;2023-07-30T12:59:23;96280.75;;;21.70;55.32
81025;BME280;70500;50.292;6.666;2023-07-30T13:01:52;96295.72;;;21.74;55.39
81025;BME280;70500;50.292;6.666;2023-07-30T13:04:21;96303.94;;;21.74;55.19
81025;BME280;70500;50.292;6.666;2023-07-30T13:06:50;96294.72;;;21.72;55.30
81025;BME280;70500;50.292;6.666;2023-07-30T13:09:20;96300.94;;;21.72;55.35
81025;BME280;70500;50.292;6.666;2023-07-30T13:11:50;96297.94;;;21.70;55.73
81025;BME280;70500;50.292;6.666;2023-07-30T13:14:20;96298.69;;;21.71;55.46